Date,TemperatureHighF,TemperatureAvgF,TemperatureLowF,DewpointHighF,DewpointAvgF,DewpointLowF,HumidityHigh,HumidityAvg,HumidityLow,PressureMaxIn,PressureMinIn,WindSpeedMaxMPH,WindSpeedAvgMPH,GustSpeedMaxMPH,PrecipitationSumIn
2013-1-1,32.0,11.9,-1.0,29.7,7.0,-4.2,91,81,72,29.97,29.68,12,4,20,0.00
2013-1-2,18.4,4.8,-14.5,14.6,-0.4,-18.6,90,79,64,30.30,29.87,10,2,16,0.00
2013-1-3,23.7,0.0,-15.2,22.2,-3.3,-19.3,96,85,77,30.29,29.88,6,1,7,0.00
2013-1-4,32.2,29.0,21.2,28.8,25.4,19.3,95,87,81,29.88,29.71,6,3,21,0.00
2013-1-5,31.9,23.2,12.8,28.2,17.1,9.2,94,78,63,30.25,29.78,12,4,26,0.00
2013-1-6,33.7,27.3,17.9,32.7,25.9,14.6,98,95,87,30.07,29.82,5,2,9,0.01
2013-1-7,26.0,17.7,7.1,22.8,15.0,4.3,98,89,85,30.41,30.05,6,2,14,0.00
2013-1-8,34.5,30.8,24.8,31.6,27.4,21.5,94,87,80,30.32,30.10,3,1,11,0.00
2013-1-9,40.5,33.5,19.8,35.1,29.1,18.4,96,84,71,30.29,29.81,12,2,20,0.17
2013-1-10,38.5,31.9,20.5,30.8,25.8,18.5,94,78,66,30.54,30.07,9,3,18,0.00
2013-1-11,37.9,28.7,17.9,37.1,26.6,16.5,98,92,80,30.49,29.94,6,2,9,0.05
2013-1-12,54.4,43.2,37.8,46.3,40.7,37.0,98,91,72,29.99,29.91,6,1,9,0.00
2013-1-13,51.2,45.4,39.2,50.1,44.4,38.6,100,96,92,29.99,29.71,5,1,9,0.30
2013-1-14,48.2,38.6,31.7,47.9,34.3,26.1,99,85,66,30.29,29.65,9,3,18,0.05
2013-1-15,34.0,28.8,24.7,26.7,22.1,19.5,86,76,61,30.35,30.20,5,1,9,0.00
2013-1-16,34.8,29.9,25.2,31.0,26.3,21.9,92,86,81,30.20,29.70,8,1,11,0.00
2013-1-17,34.8,14.1,-2.5,30.9,6.5,-9.6,96,72,47,30.25,29.71,13,3,23,0.00
2013-1-18,23.6,10.4,-4.4,15.6,3.0,-7.8,87,73,49,30.39,30.07,7,2,14,0.00
2013-1-19,43.4,34.3,23.6,34.5,27.8,13.7,94,78,63,30.07,29.52,8,2,19,0.03
2013-1-20,46.0,30.2,9.6,36.7,20.2,2.4,93,67,54,30.02,29.24,19,8,35,0.07
2013-1-21,9.4,5.7,1.5,3.6,-0.0,-4.9,88,77,71,30.08,29.85,7,3,11,0.00
2013-1-22,8.1,4.8,-3.0,4.8,-1.0,-9.5,99,77,57,30.17,29.82,7,3,15,0.00
2013-1-23,-1.1,-6.6,-13.0,-9.9,-14.3,-18.9,81,69,55,30.29,30.17,7,2,12,0.00
2013-1-24,8.2,-1.1,-7.9,-4.8,-9.0,-12.6,82,69,51,30.47,30.21,9,4,17,0.00
2013-1-25,12.0,5.1,-2.7,4.4,-2.3,-7.2,85,71,56,30.47,30.14,6,2,14,0.00
2013-1-26,15.2,8.2,0.4,8.0,2.3,-3.0,88,77,59,30.37,30.13,4,1,8,0.00
2013-1-27,18.1,11.1,1.9,7.7,3.0,-1.6,86,71,48,30.57,30.37,4,1,8,0.00
2013-1-28,23.3,20.0,15.2,21.8,16.1,7.3,94,85,64,30.44,29.93,6,4,10,0.00
2013-1-29,31.9,22.4,14.4,31.4,20.7,12.5,98,93,90,30.12,29.75,7,3,10,0.00
2013-1-30,60.4,53.1,32.0,53.5,49.2,31.4,99,87,71,29.75,29.07,13,4,29,0.36
2013-1-31,53.7,33.9,16.5,52.1,27.3,9.5,100,77,58,29.57,28.79,16,8,34,0.08
2013-2-1,16.6,11.6,7.1,10.0,4.5,-0.2,83,73,60,30.17,29.57,8,5,15,0.00
2013-2-2,18.1,13.0,6.0,15.5,9.4,-0.3,93,85,73,30.19,29.98,4,1,6,0.00
2013-2-3,19.4,12.3,4.1,16.4,9.2,1.8,100,88,80,29.99,29.78,5,2,9,0.00
2013-2-4,18.5,9.9,-6.0,12.0,3.5,-9.9,93,76,47,29.95,29.78,9,2,16,0.00
2013-2-5,20.5,5.3,-14.5,7.7,-3.6,-18.4,88,69,42,30.02,29.84,4,1,6,0.06
2013-2-6,24.5,15.4,4.5,22.0,7.3,-2.4,91,71,49,30.40,29.81,11,3,17,0.00
2013-2-7,10.0,5.1,-0.1,1.0,-2.7,-7.9,81,69,56,30.58,30.34,10,5,16,0.00
2013-2-8,13.4,8.2,4.1,11.2,5.4,-0.9,91,88,77,30.34,30.00,11,9,22,0.00
2013-2-9,16.2,9.6,-4.6,9.8,5.3,-7.7,90,83,66,30.40,30.08,9,3,17,0.00
2013-2-10,30.6,10.1,-11.8,13.1,1.0,-15.8,91,69,41,30.46,30.11,5,1,8,0.11
2013-2-11,41.3,27.3,13.4,37.4,23.2,6.7,95,84,74,30.10,29.53,6,3,15,0.26
2013-2-12,36.0,33.1,29.2,32.2,29.7,25.6,96,88,78,29.83,29.54,8,2,18,0.12
2013-2-13,34.3,30.6,27.0,28.3,25.9,23.6,91,83,71,29.81,29.72,3,0,6,0.03
2013-2-14,37.4,31.8,26.5,29.3,25.4,23.4,95,78,60,29.89,29.75,4,1,8,0.01
2013-2-15,36.8,31.9,23.1,32.8,26.3,17.6,96,80,69,29.97,29.72,5,2,19,0.04
2013-2-16,23.3,15.8,5.2,19.5,7.6,1.1,87,70,51,30.07,29.96,6,2,10,0.00
2013-2-17,12.3,7.4,1.3,3.4,1.2,-2.4,89,76,65,30.04,29.86,9,5,19,0.00
2013-2-18,21.2,9.5,-1.1,6.4,0.9,-6.0,81,68,51,30.25,30.05,6,2,13,0.00
2013-2-19,33.4,25.5,12.5,32.6,18.7,3.8,97,76,58,30.06,29.56,7,3,16,0.09
2013-2-20,29.3,23.9,10.8,24.9,18.8,8.2,92,81,66,29.90,29.60,11,5,19,0.00
2013-2-21,20.3,13.1,5.9,17.2,9.5,2.2,90,85,81,30.41,29.90,11,4,20,0.00
2013-2-22,34.6,26.9,19.7,26.5,22.2,17.1,92,83,70,30.42,30.11,8,3,12,0.08
2013-2-23,34.8,31.8,28.9,33.5,29.8,24.1,98,93,82,30.11,29.82,5,2,7,0.11
2013-2-24,36.5,32.9,30.9,32.9,30.4,28.5,98,91,74,29.95,29.79,5,0,9,0.01
2013-2-25,38.5,33.2,30.6,33.6,30.9,29.1,100,92,76,30.22,29.95,3,0,6,0.00
2013-2-26,42.3,34.0,25.9,31.8,29.2,24.2,95,83,59,30.26,29.98,9,3,14,0.02
2013-2-27,33.4,32.6,32.0,32.2,31.4,29.8,98,96,89,30.00,29.56,13,7,23,0.40
2013-2-28,37.2,33.7,31.4,35.5,32.5,30.6,98,95,89,29.64,29.49,4,0,8,0.18
2013-3-1,32.7,30.3,24.7,31.6,28.2,23.0,97,92,84,29.83,29.64,9,5,16,0.01
2013-3-2,24.7,21.7,19.4,22.9,18.3,16.4,93,87,78,29.86,29.81,6,4,11,0.00
2013-3-3,25.9,21.6,16.4,19.8,17.6,14.0,91,85,73,29.82,29.75,7,3,12,0.01
2013-3-4,27.8,22.2,17.9,21.2,17.3,13.6,89,81,70,29.95,29.77,8,5,15,0.00
2013-3-5,34.8,27.3,22.1,27.0,22.4,18.8,90,82,69,30.09,29.95,6,2,10,0.00
2013-3-6,41.6,34.4,29.1,33.3,30.1,26.4,94,84,71,30.18,30.06,12,7,20,0.00
2013-3-7,33.0,31.0,27.7,29.3,25.8,23.5,92,81,72,30.25,30.15,10,5,17,0.00
2013-3-8,37.8,31.6,24.1,27.1,23.9,20.5,87,74,59,30.35,30.21,7,3,12,0.00
2013-3-9,45.3,30.9,17.6,28.6,22.5,15.9,94,73,44,30.39,30.26,3,1,5,0.00
2013-3-10,54.3,40.2,24.4,30.0,25.7,21.2,89,60,33,30.25,29.98,6,1,12,0.00
2013-3-11,52.6,47.1,40.4,40.7,31.3,28.5,80,54,45,30.01,29.71,15,2,23,0.00
2013-3-12,48.1,40.1,34.7,44.1,38.0,32.6,100,92,79,29.80,29.67,13,3,22,0.20
2013-3-13,39.2,34.7,30.4,33.1,30.2,26.2,93,84,67,29.81,29.73,6,2,16,0.00
2013-3-14,30.2,20.4,13.3,26.2,13.1,7.3,93,73,64,29.96,29.73,9,5,16,0.00
2013-3-15,35.5,23.5,13.2,31.6,18.3,8.5,96,80,65,29.97,29.54,9,4,16,0.01
2013-3-16,22.8,17.1,8.8,18.0,9.0,4.0,83,70,55,29.94,29.81,6,2,11,0.01
2013-3-17,24.3,16.4,7.1,11.1,6.3,1.6,92,66,41,30.35,29.92,6,2,13,0.00
2013-3-18,31.2,20.4,4.6,24.0,10.1,1.3,88,66,40,30.42,29.93,11,4,18,0.00
2013-3-19,37.2,30.4,24.4,33.0,28.2,21.5,97,92,81,29.93,29.65,9,4,15,0.11
2013-3-20,34.4,26.6,17.2,28.1,22.4,15.5,94,84,68,29.72,29.64,8,2,21,0.03
2013-3-21,33.9,26.5,17.0,22.3,19.4,13.9,89,75,52,29.69,29.62,6,2,15,0.00
2013-3-22,31.0,26.1,21.8,25.6,21.4,16.9,93,83,60,29.77,29.62,7,2,14,0.01
2013-3-23,37.4,32.8,23.5,25.8,23.9,21.5,94,71,56,29.87,29.75,10,4,20,0.00
2013-3-24,38.0,33.3,26.0,28.0,25.7,23.0,89,74,62,29.90,29.79,5,2,12,0.00
2013-3-25,40.9,32.8,24.0,29.7,26.2,21.3,91,77,60,29.79,29.61,10,4,18,0.00
2013-3-26,44.7,37.5,31.1,28.7,26.6,24.3,85,66,48,29.80,29.67,7,3,13,0.00
2013-3-27,43.9,38.1,32.5,33.0,30.6,28.4,89,75,61,29.94,29.78,8,2,14,0.00
2013-3-28,47.9,39.8,32.5,38.6,33.8,28.1,90,79,67,30.06,29.92,5,1,10,0.00
2013-3-29,44.6,38.8,31.7,37.5,33.3,29.6,94,81,62,30.09,30.04,7,2,13,0.00
2013-3-30,50.9,37.8,27.3,30.4,25.9,18.8,96,67,29,30.14,30.01,5,1,11,0.00
2013-3-31,56.0,42.3,29.5,40.7,30.5,22.6,96,66,35,30.02,29.60,19,5,28,0.16
2013-4-1,42.0,37.2,27.4,40.3,29.1,13.1,97,74,47,29.80,29.48,14,6,29,0.05
2013-4-2,32.9,27.5,21.8,19.6,14.9,9.7,87,60,43,29.93,29.80,12,7,26,0.00
2013-4-3,38.4,30.5,23.6,20.7,14.5,10.2,66,52,34,30.23,29.93,12,7,22,0.00
2013-4-4,49.8,30.4,22.7,30.2,21.5,16.8,85,71,49,30.25,30.05,5,1,16,0.01